createdAt,value
2018-01-08T00:00:07.951Z,7.30
2018-01-08T00:02:35.614Z,7.30
2018-01-08T00:05:03.208Z,7.40
2018-01-08T00:07:30.858Z,7.30
2018-01-08T00:09:58.476Z,7.30
2018-01-08T00:12:26.100Z,7.40
2018-01-08T00:14:53.731Z,7.40
2018-01-08T00:17:21.394Z,7.40
2018-01-08T00:19:49.035Z,7.40
2018-01-08T00:22:16.656Z,7.40
2018-01-08T00:24:45.033Z,7.40
2018-01-08T00:27:12.612Z,7.40
2018-01-08T00:29:40.269Z,7.50
2018-01-08T00:32:07.901Z,7.50
2018-01-08T00:34:35.478Z,7.50
2018-01-08T00:37:03.147Z,7.50
2018-01-08T00:39:30.705Z,7.50
2018-01-08T00:41:58.287Z,7.40
2018-01-08T00:44:25.888Z,7.60
2018-01-08T00:46:53.586Z,7.60
2018-01-08T00:49:21.169Z,7.60
2018-01-08T00:51:49.501Z,7.60
2018-01-08T00:54:17.167Z,7.60
2018-01-08T00:56:44.758Z,7.60
2018-01-08T00:59:12.393Z,7.60
2018-01-08T01:01:40.121Z,7.60
2018-01-08T01:04:07.735Z,7.60
2018-01-08T01:06:35.306Z,7.50
2018-01-08T01:09:03.694Z,7.60
2018-01-08T01:11:31.339Z,7.50
2018-01-08T01:13:58.904Z,7.50
2018-01-08T01:16:26.492Z,7.40
2018-01-08T01:18:54.890Z,7.50
2018-01-08T01:21:22.528Z,7.50
2018-01-08T01:23:50.938Z,7.50
2018-01-08T01:26:18.562Z,7.50
2018-01-08T01:28:46.899Z,7.40
2018-01-08T01:31:14.523Z,7.40
2018-01-08T01:33:42.159Z,7.40
2018-01-08T01:36:09.802Z,7.50
2018-01-08T01:38:37.409Z,7.50
2018-01-08T01:41:05.017Z,7.50
2018-01-08T01:43:32.602Z,7.50
2018-01-08T01:46:00.189Z,7.50
2018-01-08T01:48:27.929Z,7.60
2018-01-08T01:50:56.283Z,7.60
2018-01-08T01:53:23.845Z,7.60
2018-01-08T01:55:52.261Z,7.50
2018-01-08T01:58:19.837Z,7.50
2018-01-08T02:00:47.443Z,7.60
2018-01-08T02:03:15.053Z,7.60
2018-01-08T02:05:42.705Z,7.60
2018-01-08T02:08:10.333Z,7.60
2018-01-08T02:10:37.902Z,7.60
2018-01-08T02:13:05.522Z,7.60
2018-01-08T02:15:33.172Z,7.60
2018-01-08T02:18:00.790Z,7.60
2018-01-08T02:20:28.430Z,7.70
2018-01-08T02:22:56.013Z,7.60
2018-01-08T02:25:23.610Z,7.60
2018-01-08T02:27:51.256Z,7.60
2018-01-08T02:30:19.588Z,7.70
2018-01-08T02:32:47.166Z,7.70
2018-01-08T02:35:14.778Z,7.70
2018-01-08T02:37:42.392Z,7.70
2018-01-08T02:40:10.025Z,7.70
2018-01-08T02:42:37.702Z,7.60
2018-01-08T02:45:05.314Z,7.60
2018-01-08T02:47:33.002Z,7.70
2018-01-08T02:50:00.603Z,7.70
2018-01-08T02:52:28.177Z,7.70
2018-01-08T02:54:55.789Z,7.70
2018-01-08T02:57:23.360Z,7.60
2018-01-08T02:59:51.008Z,7.60
2018-01-08T03:02:18.572Z,7.70
2018-01-08T03:04:46.169Z,7.70
2018-01-08T03:07:13.794Z,7.70
2018-01-08T03:09:41.393Z,7.70
2018-01-08T03:12:08.975Z,7.70
2018-01-08T03:14:37.363Z,7.70
2018-01-08T03:17:05.741Z,7.80
2018-01-08T03:19:34.081Z,7.80
2018-01-08T03:22:01.817Z,7.80
2018-01-08T03:24:29.411Z,7.80
2018-01-08T03:26:57.020Z,7.80
2018-01-08T03:29:24.614Z,7.80
2018-01-08T03:31:52.206Z,7.80
2018-01-08T03:34:19.830Z,7.80
2018-01-08T03:36:47.454Z,7.70
2018-01-08T03:39:15.787Z,7.80
2018-01-08T03:41:43.414Z,7.80
2018-01-08T03:44:10.978Z,7.80
2018-01-08T03:46:38.605Z,7.80
2018-01-08T03:49:06.249Z,7.90
2018-01-08T03:51:33.895Z,7.90
2018-01-08T03:54:01.529Z,7.90
2018-01-08T03:56:29.096Z,7.90
2018-01-08T03:58:56.769Z,7.90
2018-01-08T04:01:27.535Z,7.90
2018-01-08T04:03:55.126Z,7.90
2018-01-08T04:06:23.461Z,7.90
2018-01-08T04:08:51.080Z,7.90
2018-01-08T04:11:18.747Z,7.90
2018-01-08T04:13:46.367Z,7.80
2018-01-08T04:16:13.944Z,7.80
2018-01-08T04:18:42.324Z,7.90
2018-01-08T04:21:10.675Z,7.80
2018-01-08T04:23:38.313Z,7.80
2018-01-08T04:26:05.888Z,7.90
2018-01-08T04:28:33.480Z,7.90
2018-01-08T04:31:01.879Z,7.90
2018-01-08T04:33:29.521Z,7.90
2018-01-08T04:35:57.897Z,8.00
2018-01-08T04:38:26.305Z,8.00
2018-01-08T04:40:53.879Z,8.00
2018-01-08T04:43:21.501Z,7.90
2018-01-08T04:45:49.842Z,7.90
2018-01-08T04:48:17.437Z,7.90
2018-01-08T04:50:45.189Z,8.00
2018-01-08T04:53:12.760Z,7.90
2018-01-08T04:55:40.381Z,7.90
2018-01-08T04:58:08.035Z,7.90
2018-01-08T05:00:35.604Z,7.90
2018-01-08T05:03:03.264Z,7.90
2018-01-08T05:05:30.865Z,7.90
2018-01-08T05:07:58.491Z,7.90
2018-01-08T05:10:26.079Z,7.90
2018-01-08T05:12:53.682Z,7.90
2018-01-08T05:15:21.300Z,7.90
2018-01-08T05:17:49.078Z,7.90
2018-01-08T05:20:17.505Z,7.90
2018-01-08T05:22:45.140Z,7.90
2018-01-08T05:25:12.811Z,7.90
2018-01-08T05:27:40.450Z,7.90
2018-01-08T05:30:08.864Z,7.90
2018-01-08T05:32:36.497Z,7.90
2018-01-08T05:35:04.083Z,8.00
2018-01-08T05:37:31.666Z,8.00
2018-01-08T05:39:59.270Z,8.00
2018-01-08T05:42:27.633Z,7.90
2018-01-08T05:44:55.283Z,7.90
2018-01-08T05:47:22.891Z,7.90
2018-01-08T05:49:51.269Z,7.90
2018-01-08T05:52:18.931Z,7.90
2018-01-08T05:54:47.304Z,7.90
2018-01-08T05:57:15.637Z,7.90
2018-01-08T05:59:43.289Z,7.90
2018-01-08T06:02:10.971Z,7.90
2018-01-08T06:04:39.403Z,8.00
2018-01-08T06:07:07.033Z,7.90
2018-01-08T06:09:34.744Z,7.90
2018-01-08T06:12:02.405Z,7.90
2018-01-08T06:14:30.025Z,7.90
2018-01-08T06:16:57.586Z,8.00
2018-01-08T06:19:25.978Z,8.00
2018-01-08T06:21:54.409Z,8.00
2018-01-08T06:24:22.074Z,8.00
2018-01-08T06:26:49.701Z,8.00
2018-01-08T06:29:17.319Z,7.90
2018-01-08T06:31:44.946Z,7.90
2018-01-08T06:34:12.538Z,7.90
2018-01-08T06:36:40.180Z,7.90
2018-01-08T06:39:07.761Z,7.90
2018-01-08T06:41:35.381Z,7.90
2018-01-08T06:44:03.018Z,7.90
2018-01-08T06:46:30.608Z,8.00
2018-01-08T06:48:58.277Z,7.90
2018-01-08T06:51:25.882Z,7.90
2018-01-08T06:53:53.490Z,7.90
2018-01-08T06:56:21.946Z,7.90
2018-01-08T06:58:49.793Z,7.90
2018-01-08T07:01:17.436Z,7.90
2018-01-08T07:03:45.023Z,7.90
2018-01-08T07:06:14.587Z,7.90
2018-01-08T07:08:42.170Z,7.90
2018-01-08T07:11:09.790Z,8.00
2018-01-08T07:13:37.436Z,8.00
2018-01-08T07:16:05.981Z,8.00
2018-01-08T07:18:34.431Z,8.00
2018-01-08T07:21:02.102Z,8.00
2018-01-08T07:23:29.767Z,8.00
2018-01-08T07:25:57.615Z,8.00
2018-01-08T07:28:25.244Z,8.10
2018-01-08T07:30:53.587Z,8.10
2018-01-08T07:33:21.258Z,8.10
2018-01-08T07:36:00.371Z,8.00
2018-01-08T07:38:28.363Z,8.00
2018-01-08T07:40:56.849Z,7.90
2018-01-08T07:43:26.150Z,7.90
2018-01-08T07:45:55.026Z,7.90
2018-01-08T07:48:36.115Z,7.90
2018-01-08T07:51:07.379Z,8.10
2018-01-08T07:53:34.966Z,8.00
2018-01-08T07:56:03.796Z,8.10
2018-01-08T07:58:32.230Z,8.20
2018-01-08T08:00:59.850Z,8.20
2018-01-08T08:03:27.594Z,8.10
2018-01-08T08:05:55.242Z,8.10
2018-01-08T08:08:23.686Z,8.00
2018-01-08T08:10:53.029Z,8.00
2018-01-08T08:13:21.361Z,8.10
2018-01-08T08:15:49.425Z,8.10
2018-01-08T08:18:18.059Z,8.20
2018-01-08T08:20:46.932Z,8.20
2018-01-08T08:23:15.919Z,8.20
2018-01-08T08:25:44.826Z,8.20
2018-01-08T08:28:12.874Z,8.20
2018-01-08T08:30:41.163Z,8.20
2018-01-08T08:33:09.563Z,8.20
2018-01-08T08:35:38.034Z,8.20
2018-01-08T08:38:06.002Z,8.20
2018-01-08T08:40:34.228Z,8.20
2018-01-08T08:43:02.552Z,8.20
2018-01-08T08:45:30.716Z,8.20
2018-01-08T08:47:59.566Z,8.20
2018-01-08T08:50:28.543Z,8.30
2018-01-08T08:52:57.746Z,8.30
2018-01-08T08:55:25.606Z,8.30
2018-01-08T08:57:54.372Z,8.40
2018-01-08T09:00:23.450Z,8.30
2018-01-08T09:02:54.018Z,8.30
2018-01-08T09:05:21.769Z,8.30
2018-01-08T09:07:49.544Z,8.20
2018-01-08T09:10:17.422Z,8.20
2018-01-08T09:12:48.188Z,8.30
2018-01-08T09:15:15.928Z,8.30
2018-01-08T09:17:43.658Z,8.30
2018-01-08T09:20:11.517Z,8.40
2018-01-08T09:22:39.274Z,8.50
2018-01-08T09:25:07.079Z,8.60
2018-01-08T09:27:34.798Z,8.60
2018-01-08T09:30:03.466Z,8.50
2018-01-08T09:32:31.133Z,8.50
2018-01-08T09:34:59.818Z,8.60
2018-01-08T09:37:27.638Z,8.60
2018-01-08T09:39:56.002Z,8.60
2018-01-08T09:42:23.733Z,8.60
2018-01-08T09:44:52.410Z,8.70
2018-01-08T09:47:20.355Z,8.80
2018-01-08T09:49:48.026Z,8.80
2018-01-08T09:52:15.662Z,8.90
2018-01-08T09:54:43.365Z,9.00
2018-01-08T09:57:11.105Z,9.00
2018-01-08T09:59:38.783Z,9.00
2018-01-08T10:02:07.350Z,9.00
2018-01-08T10:04:46.742Z,9.00
2018-01-08T10:07:26.212Z,8.90
2018-01-08T10:10:06.427Z,8.90
2018-01-08T10:12:46.927Z,8.80
2018-01-08T10:15:26.456Z,8.80
2018-01-08T10:18:06.345Z,8.80
2018-01-08T10:20:33.984Z,8.70
2018-01-08T10:23:01.694Z,8.80
2018-01-08T10:25:29.381Z,8.70
2018-01-08T10:27:57.734Z,8.50
2018-01-08T10:30:26.138Z,8.60
2018-01-08T10:32:54.510Z,8.50
2018-01-08T10:35:25.214Z,8.50
2018-01-08T10:37:52.857Z,8.50
2018-01-08T10:40:20.838Z,8.50
2018-01-08T10:42:54.146Z,8.60
2018-01-08T10:45:27.754Z,8.70
2018-01-08T10:50:41.438Z,8.80
2018-01-08T10:53:10.722Z,8.80
2018-01-08T10:55:39.124Z,8.70
2018-01-08T10:58:06.806Z,8.70
2018-01-08T11:00:34.500Z,8.90
2018-01-08T11:03:07.910Z,8.90
2018-01-08T11:05:35.561Z,8.90
2018-01-08T11:08:03.392Z,9.00
2018-01-08T11:13:04.265Z,9.00
2018-01-08T11:15:32.255Z,9.00
2018-01-08T11:17:59.988Z,9.10
2018-01-08T11:20:27.613Z,9.10
2018-01-08T11:22:55.956Z,9.00
2018-01-08T11:25:23.603Z,9.00
2018-01-08T11:27:51.392Z,9.00
2018-01-08T11:30:19.038Z,8.90
2018-01-08T11:32:46.654Z,9.00
2018-01-08T11:35:14.338Z,9.10
2018-01-08T11:37:41.943Z,9.10
2018-01-08T11:40:09.771Z,9.10
2018-01-08T11:42:41.368Z,9.10
2018-01-08T11:45:09.039Z,9.00
2018-01-08T11:47:37.173Z,9.00
2018-01-08T11:50:04.938Z,9.00
2018-01-08T11:52:32.530Z,8.90
2018-01-08T11:55:02.481Z,9.00
2018-01-08T11:57:42.502Z,9.00
2018-01-08T12:00:28.617Z,9.10
2018-01-08T12:02:56.961Z,9.10
2018-01-08T12:05:24.669Z,9.10
2018-01-08T12:07:52.367Z,9.10
2018-01-08T12:10:20.003Z,9.10
2018-01-08T12:12:47.708Z,9.10
2018-01-08T12:15:15.375Z,9.10
2018-01-08T12:17:43.056Z,9.10
2018-01-08T12:20:18.549Z,9.10
2018-01-08T12:22:46.199Z,9.10
2018-01-08T12:25:14.562Z,9.20
2018-01-08T12:27:42.954Z,9.30
2018-01-08T12:30:10.652Z,9.30
2018-01-08T12:32:38.255Z,9.30
2018-01-08T12:35:05.956Z,9.40
2018-01-08T12:37:34.363Z,9.40
2018-01-08T12:40:02.064Z,9.40
2018-01-08T12:42:29.810Z,9.40
2018-01-08T12:44:58.408Z,9.40
2018-01-08T12:47:26.640Z,9.30
2018-01-08T12:49:54.496Z,9.40
2018-01-08T12:52:22.726Z,9.40
2018-01-08T12:54:57.863Z,9.40
2018-01-08T12:57:30.008Z,9.40
2018-01-08T12:59:58.339Z,9.40
2018-01-08T13:02:26.117Z,9.50
2018-01-08T13:04:54.480Z,9.50
2018-01-08T13:07:27.271Z,9.50
2018-01-08T13:09:55.163Z,9.50
2018-01-08T13:12:23.949Z,9.50
2018-01-08T13:14:53.404Z,9.60
2018-01-08T13:17:21.177Z,9.50
2018-01-08T13:19:48.765Z,9.40
2018-01-08T13:22:16.718Z,9.40
2018-01-08T13:24:45.308Z,9.50
2018-01-08T13:27:13.039Z,9.50
2018-01-08T13:29:40.722Z,9.40
2018-01-08T13:32:09.162Z,9.30
2018-01-08T13:34:36.932Z,9.30
2018-01-08T13:37:05.643Z,9.40
2018-01-08T13:39:33.458Z,9.40
2018-01-08T13:42:01.193Z,9.50
2018-01-08T13:44:29.634Z,9.40
2018-01-08T13:46:57.519Z,9.40
2018-01-08T13:49:25.987Z,9.40
2018-01-08T13:51:53.826Z,9.40
2018-01-08T13:54:21.934Z,9.40
2018-01-08T13:56:49.759Z,9.40
2018-01-08T13:59:17.447Z,9.40
2018-01-08T14:01:45.526Z,9.40
2018-01-08T14:04:13.219Z,9.40
2018-01-08T14:06:41.749Z,9.20
2018-01-08T14:09:09.728Z,9.20
2018-01-08T14:11:37.402Z,9.20
2018-01-08T14:14:05.795Z,9.20
2018-01-08T14:16:33.489Z,9.30
2018-01-08T14:19:01.371Z,9.30
2018-01-08T14:21:29.247Z,9.30
2018-01-08T14:23:57.006Z,9.30
2018-01-08T14:26:28.693Z,9.30
2018-01-08T14:28:58.101Z,9.40
2018-01-08T14:31:25.965Z,9.30
2018-01-08T14:33:53.785Z,9.30
2018-01-08T14:36:21.560Z,9.20
2018-01-08T14:38:50.087Z,9.20
2018-01-08T14:41:18.161Z,9.20
2018-01-08T14:43:45.926Z,9.20
2018-01-08T14:46:18.454Z,9.10
2018-01-08T14:48:46.198Z,9.10
2018-01-08T14:51:14.747Z,9.10
2018-01-08T14:53:42.407Z,9.00
2018-01-08T14:56:11.109Z,9.10
2018-01-08T14:58:38.844Z,9.10
2018-01-08T15:01:06.502Z,9.00
2018-01-08T15:03:34.277Z,9.00
2018-01-08T15:06:01.931Z,8.90
2018-01-08T15:08:30.689Z,8.90
2018-01-08T15:10:59.245Z,9.00
2018-01-08T15:13:26.915Z,9.00
2018-01-08T15:15:54.671Z,9.00
2018-01-08T15:18:22.404Z,9.00
2018-01-08T15:20:50.096Z,9.00
2018-01-08T15:23:18.033Z,8.90
2018-01-08T15:25:45.766Z,8.90
2018-01-08T15:28:13.414Z,8.80
2018-01-08T15:30:43.502Z,8.90
2018-01-08T15:33:12.517Z,8.80
2018-01-08T15:35:41.008Z,8.90
2018-01-08T15:38:08.798Z,8.90
2018-01-08T15:40:36.370Z,8.90
2018-01-08T15:43:04.037Z,8.80
2018-01-08T15:45:31.766Z,8.90
2018-01-08T15:48:00.914Z,8.90
2018-01-08T15:50:29.306Z,8.90
2018-01-08T15:52:58.958Z,8.80
2018-01-08T15:55:27.052Z,8.80
2018-01-08T15:57:55.888Z,8.90
2018-01-08T16:00:25.318Z,8.80
2018-01-08T16:02:54.354Z,8.80
2018-01-08T16:05:22.484Z,8.80
2018-01-08T16:07:50.555Z,8.80
2018-01-08T16:10:19.881Z,8.90
2018-01-08T16:12:47.810Z,8.80
2018-01-08T16:15:16.776Z,8.90
2018-01-08T16:17:44.803Z,8.80
2018-01-08T16:20:12.915Z,8.80
2018-01-08T16:22:40.989Z,8.80
2018-01-08T16:25:08.902Z,8.80
2018-01-08T16:27:36.851Z,8.70
2018-01-08T16:30:10.408Z,8.70
2018-01-08T16:32:40.542Z,8.80
2018-01-08T16:35:09.139Z,8.70
2018-01-08T16:37:37.196Z,8.80
2018-01-08T16:40:04.862Z,8.80
2018-01-08T16:42:32.465Z,8.80
2018-01-08T16:45:00.932Z,8.80
2018-01-08T16:47:28.626Z,8.80
2018-01-08T16:49:56.247Z,8.80
2018-01-08T16:52:23.846Z,8.70
2018-01-08T16:54:52.206Z,8.70
2018-01-08T16:57:19.798Z,8.60
2018-01-08T16:59:48.260Z,8.60
2018-01-08T17:02:16.676Z,8.70
2018-01-08T17:04:44.304Z,8.60
2018-01-08T17:07:14.735Z,8.70
2018-01-08T17:09:43.261Z,8.70
2018-01-08T17:12:10.833Z,8.70
2018-01-08T17:14:38.497Z,8.70
2018-01-08T17:17:09.757Z,8.70
2018-01-08T17:19:41.103Z,8.80
2018-01-08T17:22:11.763Z,8.70
2018-01-08T17:24:41.247Z,8.70
2018-01-08T17:27:10.960Z,8.80
2018-01-08T17:29:40.690Z,8.70
2018-01-08T17:32:10.469Z,8.70
2018-01-08T17:34:40.564Z,8.70
2018-01-08T17:37:10.283Z,8.60
2018-01-08T17:39:40.917Z,8.60
2018-01-08T17:42:10.783Z,8.60
2018-01-08T17:44:41.431Z,8.60
2018-01-08T17:47:11.921Z,8.70
2018-01-08T17:49:41.620Z,8.70
2018-01-08T17:52:12.474Z,8.60
2018-01-08T17:54:43.017Z,8.60
2018-01-08T17:57:12.695Z,8.60
2018-01-08T17:59:42.414Z,8.50
2018-01-08T18:02:12.959Z,8.50
2018-01-08T18:04:43.558Z,8.50
2018-01-08T18:07:14.185Z,8.60
2018-01-08T18:09:43.642Z,8.60
2018-01-08T18:12:13.865Z,8.60
2018-01-08T18:14:44.223Z,8.60
2018-01-08T18:17:13.744Z,8.60
2018-01-08T18:19:43.250Z,8.60
2018-01-08T18:22:12.726Z,8.50
2018-01-08T18:24:42.410Z,8.50
2018-01-08T18:27:12.105Z,8.50
2018-01-08T18:29:41.590Z,8.50
2018-01-08T18:32:12.000Z,8.50
2018-01-08T18:34:42.004Z,8.50
2018-01-08T18:37:11.476Z,8.50
2018-01-08T18:39:41.725Z,8.50
2018-01-08T18:42:11.068Z,8.50
2018-01-08T18:44:39.923Z,8.50
2018-01-08T18:47:09.345Z,8.50
2018-01-08T18:49:38.032Z,8.60
2018-01-08T18:52:06.850Z,8.60
2018-01-08T18:54:36.295Z,8.60
2018-01-08T18:57:06.541Z,8.60
2018-01-08T18:59:36.040Z,8.60
2018-01-08T19:02:05.414Z,8.60
2018-01-08T19:04:35.605Z,8.60
2018-01-08T19:07:04.957Z,8.60
2018-01-08T19:09:32.605Z,8.60
2018-01-08T19:12:00.290Z,8.60
2018-01-08T19:14:27.923Z,8.60
2018-01-08T19:16:55.607Z,8.60
2018-01-08T19:19:23.182Z,8.50
2018-01-08T19:21:50.831Z,8.50
2018-01-08T19:24:18.470Z,8.50
2018-01-08T19:26:46.090Z,8.60
2018-01-08T19:29:13.728Z,8.60
2018-01-08T19:31:41.466Z,8.50
2018-01-08T19:34:09.820Z,8.50
2018-01-08T19:36:37.537Z,8.50
2018-01-08T19:39:05.169Z,8.50
2018-01-08T19:41:32.783Z,8.50
2018-01-08T19:44:00.345Z,8.50
2018-01-08T19:46:27.977Z,8.40
2018-01-08T19:48:55.551Z,8.40
2018-01-08T19:51:23.152Z,8.60
2018-01-08T19:53:50.782Z,8.60
2018-01-08T19:56:18.364Z,8.60
2018-01-08T19:58:45.973Z,8.50
2018-01-08T20:01:13.658Z,8.50
2018-01-08T20:03:41.226Z,8.50
2018-01-08T20:06:08.802Z,8.60
2018-01-08T20:08:36.432Z,8.60
2018-01-08T20:11:04.123Z,8.60
2018-01-08T20:13:31.753Z,8.50
2018-01-08T20:15:59.359Z,8.50
2018-01-08T20:18:26.982Z,8.50
2018-01-08T20:20:54.549Z,8.50
2018-01-08T20:23:22.182Z,8.40
2018-01-08T20:25:49.848Z,8.40
2018-01-08T20:28:18.220Z,8.50
2018-01-08T20:30:46.572Z,8.50
2018-01-08T20:33:14.278Z,8.40
2018-01-08T20:35:42.001Z,8.50
2018-01-08T20:38:10.236Z,8.40
2018-01-08T20:40:37.889Z,8.40
2018-01-08T20:43:05.495Z,8.30
2018-01-08T20:45:33.302Z,8.40
2018-01-08T20:48:00.937Z,8.40
2018-01-08T20:50:28.546Z,8.30
2018-01-08T20:52:56.137Z,8.30
2018-01-08T20:55:23.755Z,8.30
2018-01-08T20:57:51.420Z,8.30
2018-01-08T21:00:19.084Z,8.30
2018-01-08T21:02:51.416Z,8.30
2018-01-08T21:05:19.069Z,8.30
2018-01-08T21:07:46.729Z,8.30
2018-01-08T21:10:14.332Z,8.30
2018-01-08T21:12:41.966Z,8.30
2018-01-08T21:15:10.313Z,8.30
2018-01-08T21:17:38.015Z,8.30
2018-01-08T21:20:06.449Z,8.40
2018-01-08T21:22:34.111Z,8.30
2018-01-08T21:25:01.704Z,8.30
2018-01-08T21:27:29.527Z,8.30
2018-01-08T21:29:57.112Z,8.30
2018-01-08T21:32:24.740Z,8.30
2018-01-08T21:34:52.337Z,8.30
2018-01-08T21:37:19.964Z,8.30
2018-01-08T21:39:47.586Z,8.30
2018-01-08T21:42:15.210Z,8.20
2018-01-08T21:44:42.827Z,8.10
2018-01-08T21:47:10.397Z,8.10
2018-01-08T21:49:38.033Z,8.10
2018-01-08T21:52:05.609Z,8.20
2018-01-08T21:54:33.225Z,8.20
2018-01-08T21:57:00.904Z,8.10
2018-01-08T21:59:28.470Z,8.00
2018-01-08T22:01:56.093Z,7.90
2018-01-08T22:04:23.758Z,7.90
2018-01-08T22:06:52.078Z,7.90
2018-01-08T22:09:19.716Z,7.90
2018-01-08T22:11:47.373Z,7.90
2018-01-08T22:14:15.776Z,7.90
2018-01-08T22:16:43.394Z,7.90
2018-01-08T22:19:10.970Z,8.00
2018-01-08T22:21:38.623Z,8.00
2018-01-08T22:24:06.265Z,7.90
2018-01-08T22:26:33.917Z,7.90
2018-01-08T22:29:02.274Z,8.00
2018-01-08T22:31:29.921Z,8.00
2018-01-08T22:33:57.527Z,7.90
2018-01-08T22:36:25.152Z,7.90
2018-01-08T22:38:52.769Z,7.90
2018-01-08T22:41:20.429Z,7.90
2018-01-08T22:43:48.005Z,7.90
2018-01-08T22:46:15.619Z,7.90
2018-01-08T22:48:44.005Z,7.90
2018-01-08T22:51:12.420Z,7.80
2018-01-08T22:53:40.013Z,7.90
2018-01-08T22:56:07.694Z,7.80
2018-01-08T22:58:36.062Z,7.80
2018-01-08T23:01:03.732Z,7.80
2018-01-08T23:03:31.324Z,7.90
2018-01-08T23:05:59.035Z,7.80
2018-01-08T23:08:26.621Z,7.90
2018-01-08T23:10:54.338Z,7.80
2018-01-08T23:13:21.952Z,7.90
2018-01-08T23:15:50.433Z,7.90
2018-01-08T23:18:18.127Z,7.90
2018-01-08T23:20:45.773Z,7.90
2018-01-08T23:23:13.440Z,7.90
2018-01-08T23:25:41.063Z,7.90
2018-01-08T23:28:08.637Z,7.80
2018-01-08T23:30:36.277Z,7.70
2018-01-08T23:33:03.927Z,7.80
2018-01-08T23:35:31.579Z,7.90
2018-01-08T23:37:59.167Z,7.90
2018-01-08T23:40:26.740Z,7.90
2018-01-08T23:42:54.386Z,7.80
2018-01-08T23:45:21.961Z,7.80
2018-01-08T23:47:49.554Z,7.70
2018-01-08T23:50:17.179Z,7.70
2018-01-08T23:52:44.806Z,7.70
2018-01-08T23:55:12.372Z,7.70
2018-01-08T23:57:40.319Z,7.80
